Shirley, Maine
Current Conditions -  °F | °C
As of 3:53 AM on Sunday 26 Oct 2014 (Local Time) from KMLT Reporting Station
Light Rain Light Rain  
Wind Chill: 40°   Ceiling: 500
Heat Index: 43°   Visibility: 9mi
Dew Point: 42°   Wind: 5mph
Humidity: 97%   Direction: 100°E
Pressure: 29.39"   Gusts: NA
Location:  45.3646°N, 69.6212°W
Report Text: KMLT 260753Z AUTO 10004KT 9SM -RA OVC005 06/06 A2939 RMK AO2 SLP957 P0004 T00610056
Loading
Personal Weather Stations






























Interactive Weather Map
Tropical Storm Tracking
New forecast layout! Learn more

10-Day Weather Forecast

Advertisements
Track Severe Weather on mobile